Time;durP1;ratioP1;P1;durP2;ratioP2;P2;SDS_P1;SDS_P2;PMS_P1;PMS_P2;Temp;Humidity;BMP_temperature;BMP_pressure;BME280_temperature;BME280_humidity;BME280_pressure;Samples;Min_cycle;Max_cycle;Signal;HPM_P1;HPM_P2
2022/12/03 08:27:42;;;;;;;;;;;;;;;7.11;59.00;96486.19;4199579;27;10464;-65
2022/12/03 08:29:46;;;;;;;;;;;;;;;7.42;58.78;96497.38;4164749;28;5321;-64
2022/12/03 08:31:51;;;;;;;;;;;;;;;7.65;58.45;96485.97;4156214;28;7154;-77
2022/12/03 08:33:58;;;;;;;;;;;;;;;7.83;58.33;96491.69;4154218;28;5772;-69
2022/12/03 08:36:12;;;;;;;;;;;;;;;8.02;57.74;96496.34;4166530;28;5857;-70
2022/12/03 08:38:15;;;;;;;;;;;;;;;8.15;57.44;96495.69;4155470;28;5834;-71
2022/12/03 08:40:23;;;;;;;;;;;;;;;8.21;57.33;96494.16;4164732;28;5759;-71
2022/12/03 08:42:43;;;;;;;;;;;;;;;8.31;57.13;96489.41;4159297;28;5766;-69
2022/12/03 08:44:47;;;;;;;;;;;;;;;8.42;56.96;96492.41;4162839;28;5769;-70
2022/12/03 08:46:54;;;;;;;;;;;;;;;8.50;56.95;96488.03;4162346;28;5966;-71
2022/12/03 08:48:56;;;;;;;;;;;;;;;8.57;56.72;96480.97;4165889;28;5816;-70
2022/12/03 08:51:03;;;;;;;;;;;;;;;8.63;56.55;96477.59;4161352;28;5879;-71
2022/12/03 08:53:23;;;;;;;;;;;;;;;8.68;56.58;96481.28;4158219;28;5784;-70
2022/12/03 08:55:34;;;;;;;;;;;;;;;8.74;56.29;96472.66;4156763;28;5684;-70
2022/12/03 08:57:37;;;;;;;;;;;;;;;8.82;56.58;96465.59;4157430;28;5763;-70
2022/12/03 08:59:39;;;;;;;;;;;;;;;8.85;56.21;96470.50;4163853;28;5770;-70
2022/12/03 09:01:49;;;;;;;;;;;;;;;8.89;56.22;96471.75;4170051;28;5086;-70
2022/12/03 09:03:54;;;;;;;;;;;;;;;8.94;55.85;96467.53;4171322;28;7760;-70
2022/12/03 09:05:57;;;;;;;;;;;;;;;8.97;56.02;96479.53;4178673;28;5839;-70
2022/12/03 09:08:00;;;;;;;;;;;;;;;8.99;56.07;96482.78;4167814;28;5778;-70
2022/12/03 09:10:03;;;;;;;;;;;;;;;9.02;55.68;96479.75;4157474;28;5787;-69
2022/12/03 09:12:06;;;;;;;;;;;;;;;9.04;55.88;96480.38;4164016;28;5849;-70
2022/12/03 09:14:09;;;;;;;;;;;;;;;9.05;55.55;96482.00;4156019;28;5775;-70
2022/12/03 09:16:19;;;;;;;;;;;;;;;9.08;55.47;96476.38;4151310;28;6028;-70
2022/12/03 09:18:24;;;;;;;;;;;;;;;9.11;55.27;96483.91;4155860;28;5858;-70
2022/12/03 09:20:26;;;;;;;;;;;;;;;9.13;55.56;96481.88;4172769;28;5753;-70
2022/12/03 09:22:29;;;;;;;;;;;;;;;9.17;55.09;96479.66;4153911;28;5788;-70
2022/12/03 09:24:32;;;;;;;;;;;;;;;9.17;55.22;96480.47;4164426;28;5726;-70
2022/12/03 09:26:35;;;;;;;;;;;;;;;9.20;55.33;96490.66;4170736;28;5745;-70
2022/12/03 09:28:37;;;;;;;;;;;;;;;9.22;55.02;96490.47;4149259;28;5785;-70
2022/12/03 09:30:40;;;;;;;;;;;;;;;9.24;54.91;96488.44;4149572;28;5755;-65
2022/12/03 09:32:43;;;;;;;;;;;;;;;9.26;54.82;96489.88;4136744;28;6077;-65
2022/12/03 09:34:47;;;;;;;;;;;;;;;9.26;55.05;96484.59;4144864;28;5784;-65
2022/12/03 09:36:50;;;;;;;;;;;;;;;9.26;54.62;96495.16;4151831;28;5939;-66
2022/12/03 09:38:53;;;;;;;;;;;;;;;9.28;54.70;96503.69;4141234;28;5779;-65
2022/12/03 09:40:55;;;;;;;;;;;;;;;9.27;54.63;96491.50;4150441;28;5822;-65
2022/12/03 09:42:59;;;;;;;;;;;;;;;9.28;54.85;96502.88;4146596;28;5758;-66
2022/12/03 09:45:03;;;;;;;;;;;;;;;9.28;54.52;96492.31;4152062;28;5770;-66
2022/12/03 09:47:07;;;;;;;;;;;;;;;9.29;54.43;96494.78;4140344;28;5776;-65
2022/12/03 09:49:11;;;;;;;;;;;;;;;9.30;54.63;96495.59;4143868;28;5794;-65
2022/12/03 09:51:19;;;;;;;;;;;;;;;9.32;54.32;96491.75;4153022;28;5754;-65
2022/12/03 09:53:26;;;;;;;;;;;;;;;9.33;54.36;96498.66;4152912;28;5751;-65
2022/12/03 09:55:29;;;;;;;;;;;;;;;9.37;54.26;96500.91;4152108;28;5758;-65
2022/12/03 09:57:32;;;;;;;;;;;;;;;9.40;54.01;96505.81;4137455;28;5795;-65
2022/12/03 09:59:35;;;;;;;;;;;;;;;9.41;54.07;96500.34;4150491;28;5938;-65
2022/12/03 10:01:37;;;;;;;;;;;;;;;9.39;53.87;96490.97;4148054;28;5941;-65
2022/12/03 10:03:45;;;;;;;;;;;;;;;9.37;53.94;96498.28;4144247;28;5798;-66
2022/12/03 10:05:48;;;;;;;;;;;;;;;9.37;54.02;96496.44;4145547;28;6275;-66
2022/12/03 10:07:52;;;;;;;;;;;;;;;9.37;53.73;96495.63;4145325;28;5900;-65
2022/12/03 10:09:55;;;;;;;;;;;;;;;9.38;53.81;96492.81;4153057;28;6452;-65
2022/12/03 10:12:00;;;;;;;;;;;;;;;9.38;53.79;96492.81;4149000;28;5893;-65
2022/12/03 10:14:02;;;;;;;;;;;;;;;9.40;53.92;96484.69;4139436;28;5869;-65
2022/12/03 10:16:08;;;;;;;;;;;;;;;9.42;53.84;96485.34;4146781;28;5751;-65
2022/12/03 10:18:18;;;;;;;;;;;;;;;9.40;53.64;96474.97;4145147;28;5822;-65
2022/12/03 10:20:22;;;;;;;;;;;;;;;9.41;53.63;96476.59;4150455;28;5833;-65
2022/12/03 10:22:25;;;;;;;;;;;;;;;9.41;53.93;96478.44;4144758;28;5772;-65
2022/12/03 10:24:31;;;;;;;;;;;;;;;9.42;53.42;96472.97;4144946;28;5796;-65
2022/12/03 10:26:39;;;;;;;;;;;;;;;9.43;53.62;96471.94;4138959;28;5784;-65
2022/12/03 10:28:45;;;;;;;;;;;;;;;9.47;53.47;96459.19;4137988;28;5820;-65
2022/12/03 10:30:53;;;;;;;;;;;;;;;9.48;53.29;96450.25;4147423;28;5833;-65
2022/12/03 10:32:57;;;;;;;;;;;;;;;9.48;53.45;96453.69;4151853;28;5834;-65
2022/12/03 10:35:08;;;;;;;;;;;;;;;9.49;53.18;96457.16;4147419;28;5854;-65
2022/12/03 10:37:14;;;;;;;;;;;;;;;9.48;53.07;96456.34;4144110;28;5775;-65
2022/12/03 10:39:17;;;;;;;;;;;;;;;9.47;53.44;96459.19;4150363;28;5854;-65
2022/12/03 10:41:24;;;;;;;;;;;;;;;9.47;53.50;96453.91;4144485;28;5780;-65
2022/12/03 10:43:27;;;;;;;;;;;;;;;9.47;53.23;96459.19;4143825;28;5925;-65
2022/12/03 10:45:30;;;;;;;;;;;;;;;9.48;52.86;96450.25;4135964;28;5986;-65
2022/12/03 10:47:33;;;;;;;;;;;;;;;9.41;53.20;96457.31;4145125;28;5898;-65
2022/12/03 10:49:36;;;;;;;;;;;;;;;9.33;53.07;96448.53;4152173;28;5751;-65
2022/12/03 10:51:39;;;;;;;;;;;;;;;9.29;53.28;96449.94;4143980;28;5768;-65
2022/12/03 10:53:42;;;;;;;;;;;;;;;9.29;52.87;96452.59;4141566;28;5784;-65
2022/12/03 10:55:46;;;;;;;;;;;;;;;9.22;53.01;96441.16;4136052;28;5883;-65
2022/12/03 10:57:50;;;;;;;;;;;;;;;9.21;53.04;96438.72;4135975;28;5788;-65
2022/12/03 10:59:53;;;;;;;;;;;;;;;9.20;53.12;96440.56;4136140;28;5939;-66
2022/12/03 11:01:56;;;;;;;;;;;;;;;9.20;53.00;96440.56;4142195;28;5711;-66
2022/12/03 11:04:04;;;;;;;;;;;;;;;9.17;52.93;96438.28;4148899;28;5923;-64
2022/12/03 11:06:14;;;;;;;;;;;;;;;9.16;52.85;96434.00;4152077;28;5743;-64
2022/12/03 11:08:19;;;;;;;;;;;;;;;9.16;53.10;96433.19;4136570;28;5891;-64
2022/12/03 11:10:22;;;;;;;;;;;;;;;9.13;52.99;96426.50;4151520;28;5770;-65
2022/12/03 11:12:27;;;;;;;;;;;;;;;9.14;52.68;96428.13;4135776;28;5788;-64
2022/12/03 11:15:05;;;;;;;;;;;;;;;9.15;52.92;96421.84;4136611;28;5795;-65
2022/12/03 11:17:10;;;;;;;;;;;;;;;9.19;52.63;96424.94;4151347;28;5766;-64
2022/12/03 11:19:18;;;;;;;;;;;;;;;9.22;52.78;96435.09;4152069;28;5845;-65
2022/12/03 11:21:22;;;;;;;;;;;;;;;9.20;52.71;96448.47;4136030;28;5784;-65
2022/12/03 11:24:15;;;;;;;;;;;;;;;9.23;52.63;96441.97;4135519;28;5772;-64
2022/12/03 11:26:57;;;;;;;;;;;;;;;9.29;52.52;96442.03;4142520;28;5763;-65
2022/12/03 11:29:01;;;;;;;;;;;;;;;9.37;52.46;96445.50;4143805;28;5912;-65
2022/12/03 11:31:11;;;;;;;;;;;;;;;9.37;52.19;96435.78;4137217;28;5759;-64
2022/12/03 11:33:21;;;;;;;;;;;;;;;9.37;52.07;96442.88;4140893;28;5788;-65
2022/12/03 11:35:27;;;;;;;;;;;;;;;9.30;52.34;96427.84;4149903;28;5800;-65
2022/12/03 11:37:30;;;;;;;;;;;;;;;9.32;52.25;96440.81;4146466;28;5789;-65
2022/12/03 11:40:08;;;;;;;;;;;;;;;9.36;52.33;96438.59;4150876;28;5758;-65
2022/12/03 11:42:38;;;;;;;;;;;;;;;9.39;52.16;96441.66;4139290;28;5776;-65
2022/12/03 11:44:42;;;;;;;;;;;;;;;9.41;52.11;96436.22;4133490;28;5869;-66
2022/12/03 11:46:47;;;;;;;;;;;;;;;9.40;52.08;96434.56;4142115;28;5767;-66
2022/12/03 11:48:52;;;;;;;;;;;;;;;9.39;52.17;96436.38;4136268;28;5772;-64
2022/12/03 11:50:55;;;;;;;;;;;;;;;9.40;51.76;96440.69;4134555;28;5771;-64
2022/12/03 11:53:01;;;;;;;;;;;;;;;9.43;52.12;96450.03;4136975;28;5847;-66
2022/12/03 11:55:14;;;;;;;;;;;;;;;9.46;52.00;96447.00;4140316;28;5751;-66
2022/12/03 11:57:26;;;;;;;;;;;;;;;9.48;52.24;96444.97;4150637;28;5936;-66
2022/12/03 11:59:29;;;;;;;;;;;;;;;9.50;51.74;96454.31;4148402;28;5861;-65
2022/12/03 12:01:35;;;;;;;;;;;;;;;9.49;51.94;96449.22;4150841;28;5774;-65
2022/12/03 12:03:43;;;;;;;;;;;;;;;9.50;51.73;96445.59;4147422;28;5854;-66
2022/12/03 12:05:46;;;;;;;;;;;;;;;9.49;51.80;96436.03;4145587;28;5751;-66
2022/12/03 12:07:49;;;;;;;;;;;;;;;9.49;51.93;96436.03;4142802;28;5758;-66
2022/12/03 12:09:54;;;;;;;;;;;;;;;9.50;51.66;96435.03;4151204;28;5755;-65
2022/12/03 12:12:18;;;;;;;;;;;;;;;9.53;51.75;96426.75;4150737;28;5960;-65
2022/12/03 12:14:26;;;;;;;;;;;;;;;9.57;51.69;96427.97;4135086;28;5784;-65
2022/12/03 12:16:39;;;;;;;;;;;;;;;9.56;51.83;96421.06;4146224;28;5766;-67
2022/12/03 12:18:43;;;;;;;;;;;;;;;9.56;51.64;96413.16;4143242;28;5755;-66
2022/12/03 12:20:46;;;;;;;;;;;;;;;9.57;51.88;96409.50;4142732;28;5754;-66
2022/12/03 12:22:49;;;;;;;;;;;;;;;9.59;51.61;96407.47;4150687;28;5896;-66
2022/12/03 12:24:53;;;;;;;;;;;;;;;9.62;51.40;96404.44;4146951;28;5807;-66
2022/12/03 12:26:57;;;;;;;;;;;;;;;9.58;51.59;96405.84;4134060;28;6010;-66
2022/12/03 12:28:59;;;;;;;;;;;;;;;9.55;51.74;96398.34;4142449;28;5783;-68
2022/12/03 12:31:02;;;;;;;;;;;;;;;9.57;51.71;96404.22;4141842;28;5783;-68
2022/12/03 12:33:19;;;;;;;;;;;;;;;9.56;51.57;96399.97;4152406;28;5765;-67
2022/12/03 12:35:23;;;;;;;;;;;;;;;9.60;51.46;96406.47;4147947;28;5758;-63
2022/12/03 12:37:32;;;;;;;;;;;;;;;9.62;51.17;96410.53;4148932;28;5790;-64
2022/12/03 12:39:35;;;;;;;;;;;;;;;9.56;51.58;96395.50;4144872;28;5762;-64
2022/12/03 12:41:39;;;;;;;;;;;;;;;9.56;51.21;96397.31;4152700;28;6456;-64
2022/12/03 12:43:41;;;;;;;;;;;;;;;9.53;51.36;96390.63;4151237;28;5759;-63
2022/12/03 12:45:44;;;;;;;;;;;;;;;9.41;50.93;96383.47;4150836;28;5762;-64
2022/12/03 12:47:53;;;;;;;;;;;;;;;9.25;51.19;96381.94;4150559;28;5766;-63
2022/12/03 12:49:58;;;;;;;;;;;;;;;9.17;51.48;96384.72;4138303;28;5768;-64
2022/12/03 12:52:00;;;;;;;;;;;;;;;9.12;51.59;96387.94;4147619;28;5142;-63
2022/12/03 12:54:10;;;;;;;;;;;;;;;9.16;51.82;96383.09;4137383;28;5792;-64
2022/12/03 12:56:15;;;;;;;;;;;;;;;9.20;51.45;96379.88;4134754;28;5772;-63
2022/12/03 12:58:19;;;;;;;;;;;;;;;9.23;51.52;96379.50;4150183;28;5751;-64
2022/12/03 13:00:23;;;;;;;;;;;;;;;9.26;51.64;96388.84;4149570;28;5669;-64
2022/12/03 13:02:40;;;;;;;;;;;;;;;9.18;51.42;96387.19;4143523;28;5770;-64
2022/12/03 13:04:43;;;;;;;;;;;;;;;9.08;51.50;96381.44;4153995;28;5885;-63
2022/12/03 13:06:49;;;;;;;;;;;;;;;9.09;51.62;96384.91;4150814;28;5784;-63
2022/12/03 13:08:52;;;;;;;;;;;;;;;9.15;51.38;96384.09;4141003;28;5750;-64
2022/12/03 13:10:56;;;;;;;;;;;;;;;9.17;51.73;96374.97;4153609;28;5766;-64
2022/12/03 13:13:01;;;;;;;;;;;;;;;9.19;51.39;96378.25;4148750;28;5856;-64
2022/12/03 13:15:30;;;;;;;;;;;;;;;9.22;51.55;96382.34;4137696;28;5768;-63
2022/12/03 13:17:33;;;;;;;;;;;;;;;9.21;51.19;96386.78;4152845;28;5747;-64
2022/12/03 13:19:36;;;;;;;;;;;;;;;9.17;51.36;96385.53;4153560;28;5739;-64
2022/12/03 13:22:02;;;;;;;;;;;;;;;9.16;51.25;96375.19;4153534;28;5766;-64
2022/12/03 13:24:26;;;;;;;;;;;;;;;9.21;51.52;96381.53;4153651;28;5747;-64
2022/12/03 13:26:36;;;;;;;;;;;;;;;9.22;51.15;96371.78;4137069;28;5859;-63
2022/12/03 13:28:41;;;;;;;;;;;;;;;9.25;51.33;96366.09;4139571;28;5779;-64
2022/12/03 13:30:44;;;;;;;;;;;;;;;9.27;51.39;96375.44;4150797;28;5796;-64
2022/12/03 13:32:47;;;;;;;;;;;;;;;9.27;51.29;96370.19;4136954;28;5784;-64
2022/12/03 13:34:50;;;;;;;;;;;;;;;9.28;51.31;96382.34;4148919;28;6434;-64
2022/12/03 13:36:53;;;;;;;;;;;;;;;9.29;51.13;96370.81;4153498;28;5770;-64
2022/12/03 13:39:02;;;;;;;;;;;;;;;9.31;51.29;96375.91;4148477;28;5771;-63
2022/12/03 13:41:05;;;;;;;;;;;;;;;9.33;51.42;96364.13;4145040;28;5776;-64
2022/12/03 13:43:11;;;;;;;;;;;;;;;9.33;51.20;96366.78;4143003;28;5739;-65
2022/12/03 13:45:38;;;;;;;;;;;;;;;9.24;51.22;96375.03;4153174;28;5086;-63
2022/12/03 13:47:43;;;;;;;;;;;;;;;9.21;51.29;96370.16;4127171;28;7732;-63
2022/12/03 13:49:51;;;;;;;;;;;;;;;9.17;51.05;96374.97;4145026;28;5914;-63
2022/12/03 13:51:55;;;;;;;;;;;;;;;9.17;51.12;96374.16;4149309;28;5977;-63
2022/12/03 13:53:58;;;;;;;;;;;;;;;9.08;51.21;96367.44;4152123;28;5771;-64
2022/12/03 13:56:21;;;;;;;;;;;;;;;9.07;51.48;96364.00;4147972;28;5946;-64
2022/12/03 13:58:24;;;;;;;;;;;;;;;9.02;51.42;96361.94;4137045;28;5840;-64
2022/12/03 14:00:27;;;;;;;;;;;;;;;8.97;51.59;96358.25;4137224;28;5858;-63
2022/12/03 14:02:30;;;;;;;;;;;;;;;8.99;51.61;96362.31;4143885;28;5775;-63
2022/12/03 14:04:33;;;;;;;;;;;;;;;9.06;51.31;96365.00;4137039;28;5824;-64
2022/12/03 14:06:36;;;;;;;;;;;;;;;9.02;51.03;96369.84;4146554;28;5812;-63
2022/12/03 14:08:39;;;;;;;;;;;;;;;8.88;51.18;96368.13;4144835;28;5769;-64
2022/12/03 14:10:42;;;;;;;;;;;;;;;8.79;51.25;96358.72;4144901;28;5864;-63
2022/12/03 14:12:45;;;;;;;;;;;;;;;8.74;51.69;96354.06;4144493;28;5758;-64
2022/12/03 14:14:47;;;;;;;;;;;;;;;8.76;51.52;96359.13;4144666;28;5847;-63
2022/12/03 14:16:50;;;;;;;;;;;;;;;8.83;51.70;96359.16;4152530;28;5832;-63
2022/12/03 14:19:01;;;;;;;;;;;;;;;8.83;51.58;96354.69;4147857;28;5771;-63
2022/12/03 14:21:03;;;;;;;;;;;;;;;8.77;51.73;96349.41;4148864;28;5676;-64
2022/12/03 14:23:08;;;;;;;;;;;;;;;8.79;51.60;96350.81;4139069;28;5771;-63
2022/12/03 14:25:12;;;;;;;;;;;;;;;8.82;51.58;96352.25;4142902;28;5825;-64
2022/12/03 14:27:15;;;;;;;;;;;;;;;8.76;51.52;96353.84;4144123;28;5964;-63
2022/12/03 14:29:19;;;;;;;;;;;;;;;8.70;51.73;96352.78;4152624;28;5958;-64
2022/12/03 14:31:21;;;;;;;;;;;;;;;8.74;51.57;96359.31;4152529;28;5829;-63
2022/12/03 14:33:24;;;;;;;;;;;;;;;8.70;51.45;96352.78;4151999;28;5849;-63
2022/12/03 14:35:27;;;;;;;;;;;;;;;8.69;51.67;96351.16;4151994;28;5762;-64
2022/12/03 14:37:30;;;;;;;;;;;;;;;8.69;51.75;96343.25;4137000;28;5765;-64
2022/12/03 14:39:33;;;;;;;;;;;;;;;8.65;51.67;96349.91;4152423;28;5845;-64
2022/12/03 14:43:55;;;;;;;;;;;;;;;8.81;51.51;96343.53;4143863;28;5928;-64
2022/12/03 14:45:59;;;;;;;;;;;;;;;8.84;51.66;96343.16;4147449;28;5886;-64
2022/12/03 14:48:02;;;;;;;;;;;;;;;8.88;51.28;96346.22;4140944;28;5869;-65
2022/12/03 14:50:06;;;;;;;;;;;;;;;8.87;51.67;96339.31;4152334;28;5770;-64
2022/12/03 14:52:10;;;;;;;;;;;;;;;8.86;51.30;96346.44;4143806;28;5770;-65
2022/12/03 14:54:14;;;;;;;;;;;;;;;8.88;51.55;96340.94;4137248;28;6076;-64
2022/12/03 14:56:17;;;;;;;;;;;;;;;8.89;51.36;96339.94;4135974;28;7097;-64
2022/12/03 14:58:20;;;;;;;;;;;;;;;8.84;51.47;96340.53;4143756;28;5791;-63
2022/12/03 15:00:23;;;;;;;;;;;;;;;8.77;51.36;96344.13;4135908;28;5757;-64
2022/12/03 15:02:27;;;;;;;;;;;;;;;8.79;51.59;96339.47;4144073;28;5758;-63
2022/12/03 15:04:30;;;;;;;;;;;;;;;8.75;51.67;96334.59;4152141;28;5755;-63
2022/12/03 15:06:33;;;;;;;;;;;;;;;8.80;51.64;96339.28;4150723;28;5106;-64
2022/12/03 15:08:36;;;;;;;;;;;;;;;8.82;51.43;96341.72;4135477;28;5796;-63
2022/12/03 15:10:38;;;;;;;;;;;;;;;8.77;51.75;96338.84;4145691;28;5842;-63
2022/12/03 15:12:41;;;;;;;;;;;;;;;8.72;51.46;96339.41;4143473;28;5791;-63
2022/12/03 15:14:44;;;;;;;;;;;;;;;8.68;51.91;96343.44;4140804;28;5780;-63
2022/12/03 15:16:47;;;;;;;;;;;;;;;8.61;51.89;96343.41;4146567;28;5853;-63
2022/12/03 15:18:51;;;;;;;;;;;;;;;8.61;51.89;96338.16;4151625;28;5763;-63
2022/12/03 15:20:53;;;;;;;;;;;;;;;8.66;51.72;96337.56;4139548;28;5776;-64
2022/12/03 15:22:56;;;;;;;;;;;;;;;8.63;51.54;96338.78;4147859;28;5766;-64
2022/12/03 15:25:01;;;;;;;;;;;;;;;8.56;51.77;96332.63;4142863;28;5854;-64
2022/12/03 15:27:04;;;;;;;;;;;;;;;8.56;51.73;96337.91;4141690;28;5680;-64
2022/12/03 15:29:06;;;;;;;;;;;;;;;8.59;51.86;96334.88;4137693;28;6253;-65
2022/12/03 15:31:09;;;;;;;;;;;;;;;8.63;51.70;96332.69;4135523;28;5771;-65
2022/12/03 15:33:12;;;;;;;;;;;;;;;8.67;52.00;96334.72;4138202;28;5838;-65
2022/12/03 15:35:17;;;;;;;;;;;;;;;8.72;51.65;96340.25;4139788;28;5776;-64
2022/12/03 15:37:20;;;;;;;;;;;;;;;8.71;51.72;96340.41;4148894;28;5849;-63
2022/12/03 15:39:23;;;;;;;;;;;;;;;8.67;51.53;96337.38;4151165;28;6362;-61
2022/12/03 15:41:28;;;;;;;;;;;;;;;8.60;51.91;96325.94;4151180;28;5759;-61
2022/12/03 15:43:31;;;;;;;;;;;;;;;8.57;51.67;96334.25;4150339;28;5879;-61
2022/12/03 15:45:34;;;;;;;;;;;;;;;8.44;51.84;96334.97;4141142;28;5791;-62
2022/12/03 15:47:37;;;;;;;;;;;;;;;8.41;52.09;96334.53;4142236;28;5755;-62
2022/12/03 15:49:39;;;;;;;;;;;;;;;8.42;52.07;96323.81;4148995;28;5750;-62
2022/12/03 15:51:43;;;;;;;;;;;;;;;8.41;52.17;96331.91;4147769;28;5754;-62
2022/12/03 15:53:46;;;;;;;;;;;;;;;8.40;52.22;96335.56;4142502;28;5826;-62
2022/12/03 15:55:49;;;;;;;;;;;;;;;8.37;52.02;96334.09;4144023;28;5776;-62
2022/12/03 15:57:52;;;;;;;;;;;;;;;8.29;51.97;96328.94;4142939;28;5768;-64
2022/12/03 15:59:54;;;;;;;;;;;;;;;8.25;52.27;96332.13;4145625;28;5751;-63
2022/12/03 16:01:58;;;;;;;;;;;;;;;8.29;52.20;96336.03;4146403;28;5750;-63
2022/12/03 16:04:01;;;;;;;;;;;;;;;8.23;52.23;96344.69;4146155;28;5751;-63
2022/12/03 16:06:03;;;;;;;;;;;;;;;8.24;52.25;96335.78;4137789;28;5847;-63
2022/12/03 16:08:09;;;;;;;;;;;;;;;8.22;52.21;96335.97;4142890;28;5759;-63
2022/12/03 16:10:12;;;;;;;;;;;;;;;8.17;52.31;96339.19;4143032;28;5721;-63
2022/12/03 16:12:15;;;;;;;;;;;;;;;8.20;52.41;96334.53;4151031;28;5837;-62
2022/12/03 16:14:19;;;;;;;;;;;;;;;8.26;52.21;96331.13;4142653;28;5901;-62
2022/12/03 16:16:21;;;;;;;;;;;;;;;8.27;52.27;96328.31;4142456;28;5830;-63
2022/12/03 16:18:24;;;;;;;;;;;;;;;8.28;52.15;96334.41;4145010;28;5909;-66
2022/12/03 16:20:27;;;;;;;;;;;;;;;8.30;52.11;96327.94;4135322;28;6444;-68
2022/12/03 16:22:30;;;;;;;;;;;;;;;8.30;52.26;96327.13;4137951;28;5762;-66
2022/12/03 16:24:34;;;;;;;;;;;;;;;8.27;52.28;96328.31;4139911;28;5766;-67
2022/12/03 16:26:36;;;;;;;;;;;;;;;8.32;52.53;96333.00;4142410;28;5782;-67
2022/12/03 16:28:39;;;;;;;;;;;;;;;8.34;52.19;96341.53;4144706;28;6412;-66
2022/12/03 16:30:42;;;;;;;;;;;;;;;8.39;52.15;96336.56;4139873;28;5784;-66
2022/12/03 16:32:45;;;;;;;;;;;;;;;8.41;52.03;96331.91;4144408;28;6263;-66
2022/12/03 16:34:48;;;;;;;;;;;;;;;8.34;51.95;96334.47;4143400;28;5901;-66
2022/12/03 16:36:51;;;;;;;;;;;;;;;8.32;52.36;96333.00;4144212;28;5838;-67
2022/12/03 16:38:54;;;;;;;;;;;;;;;8.23;52.37;96334.97;4146569;28;5914;-69
2022/12/03 16:41:00;;;;;;;;;;;;;;;8.18;52.41;96327.63;4146317;28;5861;-68
2022/12/03 16:43:03;;;;;;;;;;;;;;;8.21;52.42;96326.44;4147754;28;6390;-68
2022/12/03 16:45:49;;;;;;;;;;;;;;;8.24;52.64;96333.13;4146218;28;5926;-68
2022/12/03 16:47:52;;;;;;;;;;;;;;;8.25;52.45;96332.94;4146046;28;5930;-67
2022/12/03 16:49:55;;;;;;;;;;;;;;;8.22;52.13;96321.97;4146698;28;5901;-66
2022/12/03 16:51:58;;;;;;;;;;;;;;;8.18;52.63;96332.09;4147053;28;5810;-66
2022/12/03 16:54:01;;;;;;;;;;;;;;;8.18;52.46;96327.63;4142237;28;5960;-65
2022/12/03 16:56:05;;;;;;;;;;;;;;;8.16;52.52;96331.47;4143098;28;5750;-66
2022/12/03 16:58:08;;;;;;;;;;;;;;;8.20;52.35;96327.44;4147988;28;5794;-63
2022/12/03 17:00:12;;;;;;;;;;;;;;;8.18;52.66;96324.19;4149189;28;5863;-63
2022/12/03 17:02:14;;;;;;;;;;;;;;;8.13;52.49;96323.94;4146099;28;5873;-65
2022/12/03 17:04:17;;;;;;;;;;;;;;;8.06;52.67;96334.41;4147519;28;5881;-65
2022/12/03 17:06:20;;;;;;;;;;;;;;;8.07;52.72;96336.03;4148005;28;5759;-65
2022/12/03 17:08:23;;;;;;;;;;;;;;;8.13;52.59;96326.56;4147463;28;5866;-64
2022/12/03 17:10:26;;;;;;;;;;;;;;;8.05;52.78;96324.88;4149478;28;5755;-65
2022/12/03 17:12:30;;;;;;;;;;;;;;;7.98;52.68;96317.94;4145894;28;5770;-65
2022/12/03 17:14:53;;;;;;;;;;;;;;;7.97;52.96;96324.19;4146439;28;5885;-65
2022/12/03 17:16:56;;;;;;;;;;;;;;;8.07;52.83;96317.63;4144810;28;5767;-65
2022/12/03 17:18:58;;;;;;;;;;;;;;;8.11;52.55;96320.69;4146029;28;5837;-65
2022/12/03 17:21:01;;;;;;;;;;;;;;;8.12;52.78;96323.13;4147312;28;5881;-64
2022/12/03 17:23:05;;;;;;;;;;;;;;;8.12;52.66;96317.84;4146538;28;5838;-66
2022/12/03 17:25:09;;;;;;;;;;;;;;;8.16;52.69;96319.13;4144942;28;5961;-65
2022/12/03 17:27:12;;;;;;;;;;;;;;;8.20;52.73;96324.00;4147358;28;5915;-65
2022/12/03 17:29:16;;;;;;;;;;;;;;;8.23;52.65;96318.34;4147287;28;5814;-65
2022/12/03 17:31:18;;;;;;;;;;;;;;;8.27;52.60;96319.59;4144570;28;6024;-65
2022/12/03 17:33:21;;;;;;;;;;;;;;;8.28;52.67;96321.25;4146660;28;6914;-65
2022/12/03 17:35:25;;;;;;;;;;;;;;;8.32;52.39;96322.47;4146024;28;5865;-66
2022/12/03 17:37:28;;;;;;;;;;;;;;;8.37;52.50;96314.84;4146487;28;5758;-66
2022/12/03 17:39:31;;;;;;;;;;;;;;;8.42;52.44;96318.53;4147972;28;5755;-65
2022/12/03 17:41:33;;;;;;;;;;;;;;;8.34;52.38;96315.19;4145601;28;5917;-65
2022/12/03 17:43:36;;;;;;;;;;;;;;;8.25;52.50;96322.41;4146251;28;5855;-66
2022/12/03 17:45:42;;;;;;;;;;;;;;;8.23;52.62;96320.97;4144774;28;5910;-65
2022/12/03 17:47:44;;;;;;;;;;;;;;;8.21;52.68;96326.44;4142613;28;5847;-66
2022/12/03 17:49:47;;;;;;;;;;;;;;;8.18;52.74;96325.00;4144784;28;5930;-66
2022/12/03 17:51:50;;;;;;;;;;;;;;;8.24;52.74;96330.50;4146856;28;5743;-65
2022/12/03 17:53:52;;;;;;;;;;;;;;;8.17;52.88;96323.38;4145619;28;5853;-66
2022/12/03 17:55:55;;;;;;;;;;;;;;;8.20;52.83;96326.63;4147050;28;5853;-66
2022/12/03 17:57:58;;;;;;;;;;;;;;;8.20;52.87;96330.06;4145350;28;5772;-65
2022/12/03 18:00:01;;;;;;;;;;;;;;;8.22;52.64;96329.88;4146802;28;5929;-65
2022/12/03 18:02:05;;;;;;;;;;;;;;;8.25;52.73;96324.22;4141954;28;5738;-65
2022/12/03 18:04:09;;;;;;;;;;;;;;;8.20;52.68;96322.19;4147585;28;5762;-65
2022/12/03 18:06:12;;;;;;;;;;;;;;;8.16;52.80;96326.22;4145969;28;5865;-65
2022/12/03 18:08:15;;;;;;;;;;;;;;;8.17;52.88;96322.56;4144415;28;5687;-65
2022/12/03 18:10:17;;;;;;;;;;;;;;;8.17;52.80;96320.75;4143856;28;5794;-66
2022/12/03 18:12:20;;;;;;;;;;;;;;;8.14;52.99;96320.28;4143804;28;5743;-65
2022/12/03 18:14:23;;;;;;;;;;;;;;;8.16;52.85;96324.38;4142241;28;5766;-66
2022/12/03 18:16:25;;;;;;;;;;;;;;;8.16;52.96;96324.38;4149591;28;5853;-65
2022/12/03 18:18:30;;;;;;;;;;;;;;;8.20;52.82;96321.38;4142168;28;5917;-65
2022/12/03 18:20:33;;;;;;;;;;;;;;;8.18;52.66;96321.56;4151610;28;6028;-66
2022/12/03 18:22:35;;;;;;;;;;;;;;;8.17;53.01;96314.66;4140928;28;5933;-66
2022/12/03 18:24:38;;;;;;;;;;;;;;;8.14;53.14;96315.84;4138719;28;5754;-66
2022/12/03 18:26:42;;;;;;;;;;;;;;;8.17;52.80;96315.47;4145886;28;5845;-66
2022/12/03 18:28:44;;;;;;;;;;;;;;;8.25;52.92;96321.59;4144251;28;5822;-66
2022/12/03 18:30:47;;;;;;;;;;;;;;;8.27;52.98;96317.78;4143913;28;5866;-66
2022/12/03 18:32:54;;;;;;;;;;;;;;;8.26;52.97;96315.31;4143689;28;5878;-66
2022/12/03 18:34:58;;;;;;;;;;;;;;;8.27;52.92;96315.16;4145153;28;5758;-66
2022/12/03 18:37:01;;;;;;;;;;;;;;;8.26;52.79;96310.06;4146797;28;5849;-66
2022/12/03 18:39:08;;;;;;;;;;;;;;;8.25;52.86;96313.69;4145731;28;5763;-65
2022/12/03 18:41:10;;;;;;;;;;;;;;;8.25;52.76;96317.13;4145361;28;5873;-66
2022/12/03 18:43:15;;;;;;;;;;;;;;;8.27;52.86;96324.84;4145312;28;5861;-66
2022/12/03 18:45:18;;;;;;;;;;;;;;;8.26;52.96;96318.78;4144483;28;6032;-65
2022/12/03 18:47:23;;;;;;;;;;;;;;;8.27;52.82;96314.31;4146352;28;5839;-66
2022/12/03 18:49:26;;;;;;;;;;;;;;;8.18;52.76;96311.84;4143388;28;5833;-65
2022/12/03 18:51:30;;;;;;;;;;;;;;;8.14;53.16;96318.47;4143080;28;5925;-65
2022/12/03 18:53:34;;;;;;;;;;;;;;;8.16;53.04;96316.47;4145124;28;5953;-66
2022/12/03 18:55:37;;;;;;;;;;;;;;;8.18;53.13;96317.09;4145040;28;5750;-65
2022/12/03 18:57:40;;;;;;;;;;;;;;;8.27;52.86;96316.94;4146311;28;5755;-66
2022/12/03 18:59:42;;;;;;;;;;;;;;;8.29;53.25;96317.59;4145387;28;5882;-66
2022/12/03 19:01:45;;;;;;;;;;;;;;;8.29;53.12;96314.97;4144720;28;5814;-67
2022/12/03 19:03:49;;;;;;;;;;;;;;;8.34;52.95;96309.94;4146156;28;5799;-66
2022/12/03 19:05:52;;;;;;;;;;;;;;;8.38;52.91;96311.19;4145687;28;5833;-66
2022/12/03 19:07:56;;;;;;;;;;;;;;;8.41;52.77;96310.84;4144251;28;5894;-66
2022/12/03 19:09:59;;;;;;;;;;;;;;;8.42;52.75;96304.56;4144013;28;5933;-66
2022/12/03 19:12:01;;;;;;;;;;;;;;;8.42;52.84;96312.47;4146695;28;5817;-66
2022/12/03 19:14:04;;;;;;;;;;;;;;;8.37;52.97;96314.84;4142268;28;5944;-67
2022/12/03 19:16:09;;;;;;;;;;;;;;;8.41;52.98;96316.09;4144066;28;6963;-66
2022/12/03 19:18:12;;;;;;;;;;;;;;;8.43;52.60;96314.09;4145906;28;5870;-66
2022/12/03 19:20:14;;;;;;;;;;;;;;;8.41;53.05;96321.38;4143952;28;5869;-66
2022/12/03 19:22:17;;;;;;;;;;;;;;;8.40;53.09;96322.38;4144778;28;6092;-66
2022/12/03 19:24:21;;;;;;;;;;;;;;;8.37;52.85;96320.09;4142051;28;5665;-66
2022/12/03 19:26:27;;;;;;;;;;;;;;;8.39;52.93;96318.94;4145425;28;5857;-66
2022/12/03 19:28:30;;;;;;;;;;;;;;;8.38;52.85;96311.19;4143928;28;5956;-66
2022/12/03 19:30:32;;;;;;;;;;;;;;;8.39;53.09;96310.22;4144631;28;5885;-66
2022/12/03 19:32:36;;;;;;;;;;;;;;;8.41;53.05;96305.56;4143461;28;5957;-66
2022/12/03 19:34:38;;;;;;;;;;;;;;;8.39;52.90;96307.59;4145283;28;5934;-66
2022/12/03 19:36:43;;;;;;;;;;;;;;;8.35;52.94;96307.13;4144832;28;6669;-66
2022/12/03 19:38:47;;;;;;;;;;;;;;;8.34;53.00;96309.94;4144648;28;6721;-65